createdAt,value
2022-10-18T00:01:08.000Z,287.96
2022-10-18T00:02:35.000Z,287.96
2022-10-18T00:04:41.000Z,287.9
2022-10-18T00:06:07.000Z,287.9
2022-10-18T00:08:13.000Z,287.9
2022-10-18T00:09:40.000Z,287.84
2022-10-18T00:11:46.000Z,287.9
2022-10-18T00:14:37.000Z,287.9
2022-10-18T00:16:04.000Z,287.9
2022-10-18T00:18:10.000Z,287.9
2022-10-18T00:19:36.000Z,287.84
2022-10-18T00:23:09.000Z,287.77
2022-10-18T00:25:15.000Z,287.84
2022-10-18T00:26:42.000Z,287.77
2022-10-18T00:28:48.000Z,287.84
2022-10-18T00:30:14.000Z,287.77
2022-10-18T00:32:21.000Z,287.84
2022-10-18T00:33:47.000Z,287.84
2022-10-18T00:35:53.000Z,287.84
2022-10-18T00:37:20.000Z,287.9
2022-10-18T00:39:26.000Z,287.9
2022-10-18T00:40:52.000Z,287.84
2022-10-18T00:42:58.000Z,287.84
2022-10-18T00:44:25.000Z,287.9
2022-10-18T00:46:31.000Z,287.84
2022-10-18T00:47:57.000Z,287.9
2022-10-18T00:50:03.000Z,287.84
2022-10-18T00:52:55.000Z,287.84
2022-10-18T00:54:21.000Z,287.9
2022-10-18T00:56:27.000Z,287.9
2022-10-18T00:57:54.000Z,287.9
2022-10-18T01:00:00.000Z,287.9
2022-10-18T01:01:26.000Z,287.96
2022-10-18T01:03:33.000Z,287.96
2022-10-18T01:04:59.000Z,287.9
2022-10-18T01:07:05.000Z,287.9
2022-10-18T01:08:32.000Z,287.84
2022-10-18T01:10:38.000Z,287.9
2022-10-18T01:12:04.000Z,287.84
2022-10-18T01:14:11.000Z,287.9
2022-10-18T01:15:37.000Z,287.9
2022-10-18T01:17:43.000Z,287.9
2022-10-18T01:19:10.000Z,287.9
2022-10-18T01:21:16.000Z,287.84
2022-10-18T01:22:43.000Z,287.9
2022-10-18T01:24:49.000Z,287.9
2022-10-18T01:26:15.000Z,287.9
2022-10-18T01:28:21.000Z,287.9
2022-10-18T01:31:12.000Z,288.02
2022-10-18T01:32:39.000Z,288.02
2022-10-18T01:34:45.000Z,288.02
2022-10-18T01:36:12.000Z,288.02
2022-10-18T01:38:18.000Z,288.02
2022-10-18T01:39:44.000Z,288.02
2022-10-18T01:41:50.000Z,288.02
2022-10-18T01:43:17.000Z,288.02
2022-10-18T01:45:23.000Z,287.96
2022-10-18T01:46:49.000Z,287.96
2022-10-18T01:48:55.000Z,288.09
2022-10-18T01:50:22.000Z,288.15
2022-10-18T01:52:28.000Z,288.15
2022-10-18T01:53:55.000Z,288.27
2022-10-18T01:56:01.000Z,288.15
2022-10-18T01:57:28.000Z,288.21
2022-10-18T01:59:34.000Z,288.21
2022-10-18T02:01:00.000Z,288.21
2022-10-18T02:03:06.000Z,288.21
2022-10-18T02:04:33.000Z,288.21
2022-10-18T02:06:39.000Z,288.21
2022-10-18T02:09:30.000Z,288.15
2022-10-18T02:10:57.000Z,288.21
2022-10-18T02:13:03.000Z,288.15
2022-10-18T02:14:29.000Z,288.21
2022-10-18T02:16:35.000Z,288.21
2022-10-18T02:18:02.000Z,288.21
2022-10-18T02:20:08.000Z,288.21
2022-10-18T02:21:35.000Z,288.21
2022-10-18T02:23:41.000Z,288.27
2022-10-18T02:25:07.000Z,288.27
2022-10-18T02:27:13.000Z,288.27
2022-10-18T02:28:40.000Z,288.21
2022-10-18T02:30:46.000Z,288.21
2022-10-18T02:32:12.000Z,288.21
2022-10-18T02:34:19.000Z,288.27
2022-10-18T02:35:45.000Z,288.27
2022-10-18T02:37:51.000Z,288.21
2022-10-18T02:39:18.000Z,288.27
2022-10-18T02:41:24.000Z,288.21
2022-10-18T02:42:50.000Z,288.27
2022-10-18T02:44:57.000Z,288.21
2022-10-18T02:47:48.000Z,288.27
2022-10-18T02:49:14.000Z,288.27
2022-10-18T02:51:20.000Z,288.27
2022-10-18T02:52:47.000Z,288.21
2022-10-18T02:54:53.000Z,288.21
2022-10-18T02:56:19.000Z,288.21
2022-10-18T02:58:26.000Z,288.27
2022-10-18T02:59:52.000Z,288.21
2022-10-18T03:01:58.000Z,288.21
2022-10-18T03:03:25.000Z,288.21
2022-10-18T03:05:31.000Z,288.27
2022-10-18T03:06:57.000Z,288.34
2022-10-18T03:09:03.000Z,288.27
2022-10-18T03:10:30.000Z,288.34
2022-10-18T03:12:36.000Z,288.34
2022-10-18T03:14:02.000Z,288.34
2022-10-18T03:16:08.000Z,288.4
2022-10-18T03:17:35.000Z,288.34
2022-10-18T03:19:41.000Z,288.34
2022-10-18T03:21:07.000Z,288.4
2022-10-18T03:23:14.000Z,288.34
2022-10-18T03:26:05.000Z,288.46
2022-10-18T03:27:31.000Z,288.46
2022-10-18T03:29:38.000Z,288.46
2022-10-18T03:31:04.000Z,288.46
2022-10-18T03:33:10.000Z,288.46
2022-10-18T03:34:37.000Z,288.46
2022-10-18T03:36:43.000Z,288.46
2022-10-18T03:38:10.000Z,288.46
2022-10-18T03:40:16.000Z,288.46
2022-10-18T03:41:43.000Z,288.46
2022-10-18T03:43:49.000Z,288.46
2022-10-18T03:45:15.000Z,288.46
2022-10-18T03:47:21.000Z,288.46
2022-10-18T03:48:48.000Z,288.46
2022-10-18T03:50:54.000Z,288.46
2022-10-18T03:52:20.000Z,288.46
2022-10-18T03:54:26.000Z,288.34
2022-10-18T03:55:53.000Z,288.34
2022-10-18T03:57:59.000Z,288.4
2022-10-18T03:59:26.000Z,288.4
2022-10-18T04:01:32.000Z,288.59
2022-10-18T04:04:23.000Z,288.71
2022-10-18T04:05:49.000Z,288.71
2022-10-18T04:07:56.000Z,288.71
2022-10-18T04:09:22.000Z,288.65
2022-10-18T04:11:28.000Z,288.65
2022-10-18T04:12:55.000Z,288.65
2022-10-18T04:15:01.000Z,288.65
2022-10-18T04:16:27.000Z,288.65
2022-10-18T04:18:34.000Z,288.71
2022-10-18T04:20:00.000Z,288.77
2022-10-18T04:22:06.000Z,288.71
2022-10-18T04:23:33.000Z,288.71
2022-10-18T04:25:43.000Z,288.65
2022-10-18T04:27:09.000Z,288.71
2022-10-18T04:29:15.000Z,288.65
2022-10-18T04:30:42.000Z,288.65
2022-10-18T04:32:48.000Z,288.65
2022-10-18T04:34:14.000Z,288.71
2022-10-18T04:36:20.000Z,288.71
2022-10-18T04:37:47.000Z,288.71
2022-10-18T04:39:53.000Z,288.71
2022-10-18T04:42:45.000Z,288.71
2022-10-18T04:44:11.000Z,288.77
2022-10-18T04:46:17.000Z,288.71
2022-10-18T04:47:44.000Z,288.71
2022-10-18T04:49:50.000Z,288.65
2022-10-18T04:51:16.000Z,288.65
2022-10-18T04:53:22.000Z,288.59
2022-10-18T04:54:49.000Z,288.59
2022-10-18T04:56:55.000Z,288.59
2022-10-18T04:58:21.000Z,288.59
2022-10-18T05:00:28.000Z,288.59
2022-10-18T05:01:54.000Z,288.59
2022-10-18T05:04:00.000Z,288.59
2022-10-18T05:05:27.000Z,288.59
2022-10-18T05:08:04.000Z,288.59
2022-10-18T05:09:31.000Z,288.59
2022-10-18T05:11:37.000Z,288.59
2022-10-18T05:13:03.000Z,288.59
2022-10-18T05:15:09.000Z,288.59
2022-10-18T05:16:36.000Z,288.52
2022-10-18T05:18:42.000Z,288.52
2022-10-18T05:21:33.000Z,288.52
2022-10-18T05:23:00.000Z,288.52
2022-10-18T05:25:06.000Z,288.52
2022-10-18T05:26:33.000Z,288.46
2022-10-18T05:28:39.000Z,288.46
2022-10-18T05:30:06.000Z,288.46
2022-10-18T05:32:12.000Z,288.46
2022-10-18T05:33:38.000Z,288.46
2022-10-18T05:35:44.000Z,288.46
2022-10-18T05:37:11.000Z,288.46
2022-10-18T05:39:17.000Z,288.46
2022-10-18T05:40:43.000Z,288.46
2022-10-18T05:42:50.000Z,288.46
2022-10-18T05:44:16.000Z,288.4
2022-10-18T05:46:22.000Z,288.4
2022-10-18T05:47:49.000Z,288.46
2022-10-18T05:49:55.000Z,288.4
2022-10-18T05:51:21.000Z,288.46
2022-10-18T05:53:27.000Z,288.4
2022-10-18T05:55:02.000Z,288.46
2022-10-18T05:57:08.000Z,288.46
2022-10-18T05:59:59.000Z,288.46
2022-10-18T06:01:26.000Z,288.46
2022-10-18T06:03:32.000Z,288.46
2022-10-18T06:04:58.000Z,288.46
2022-10-18T06:07:04.000Z,288.46
2022-10-18T06:08:31.000Z,288.46
2022-10-18T06:10:37.000Z,288.46
2022-10-18T06:12:03.000Z,288.46
2022-10-18T06:14:10.000Z,288.46
2022-10-18T06:15:36.000Z,288.46
2022-10-18T06:17:42.000Z,288.46
2022-10-18T06:19:09.000Z,288.46
2022-10-18T06:21:15.000Z,288.46
2022-10-18T06:22:41.000Z,288.46
2022-10-18T06:24:47.000Z,288.46
2022-10-18T06:26:20.000Z,288.46
2022-10-18T06:28:26.000Z,288.46
2022-10-18T06:29:53.000Z,288.4
2022-10-18T06:31:59.000Z,288.4
2022-10-18T06:33:26.000Z,288.4
2022-10-18T06:35:32.000Z,288.4
2022-10-18T06:38:23.000Z,288.4
2022-10-18T06:39:50.000Z,288.4
2022-10-18T06:41:56.000Z,288.4
2022-10-18T06:43:22.000Z,288.4
2022-10-18T06:45:29.000Z,288.4
2022-10-18T06:46:55.000Z,288.4
2022-10-18T06:49:01.000Z,288.34
2022-10-18T06:50:28.000Z,288.34
2022-10-18T06:52:34.000Z,288.34
2022-10-18T06:54:00.000Z,288.34
2022-10-18T06:56:22.000Z,288.34
2022-10-18T06:57:48.000Z,288.34
2022-10-18T06:59:54.000Z,288.34
2022-10-18T07:01:21.000Z,288.4
2022-10-18T07:03:27.000Z,288.34
2022-10-18T07:04:53.000Z,288.34
2022-10-18T07:07:00.000Z,288.4
2022-10-18T07:08:26.000Z,288.4
2022-10-18T07:10:32.000Z,288.4
2022-10-18T07:11:59.000Z,288.4
2022-10-18T07:14:05.000Z,288.4
2022-10-18T07:16:57.000Z,288.34
2022-10-18T07:18:24.000Z,288.4
2022-10-18T07:20:30.000Z,288.4
2022-10-18T07:21:57.000Z,288.46
2022-10-18T07:24:03.000Z,288.46
2022-10-18T07:25:29.000Z,288.46
2022-10-18T07:27:35.000Z,288.46
2022-10-18T07:29:02.000Z,288.46
2022-10-18T07:31:08.000Z,288.46
2022-10-18T07:32:35.000Z,288.52
2022-10-18T07:34:41.000Z,288.52
2022-10-18T07:36:07.000Z,288.52
2022-10-18T07:38:13.000Z,288.59
2022-10-18T07:39:40.000Z,288.52
2022-10-18T07:41:46.000Z,288.52
2022-10-18T07:43:12.000Z,288.59
2022-10-18T07:45:19.000Z,288.59
2022-10-18T07:46:45.000Z,288.59
2022-10-18T07:48:51.000Z,288.59
2022-10-18T07:50:18.000Z,288.59
2022-10-18T07:52:24.000Z,288.59
2022-10-18T07:55:15.000Z,288.59
2022-10-18T07:56:42.000Z,288.59
2022-10-18T07:58:48.000Z,288.65
2022-10-18T08:00:14.000Z,288.65
2022-10-18T08:02:20.000Z,288.71
2022-10-18T08:03:47.000Z,288.71
2022-10-18T08:05:53.000Z,288.71
2022-10-18T08:07:20.000Z,288.71
2022-10-18T08:09:26.000Z,288.71
2022-10-18T08:10:52.000Z,288.77
2022-10-18T08:12:58.000Z,288.77
2022-10-18T08:14:25.000Z,288.77
2022-10-18T08:16:31.000Z,288.77
2022-10-18T08:17:58.000Z,288.77
2022-10-18T08:20:04.000Z,288.77
2022-10-18T08:21:43.000Z,288.84
2022-10-18T08:23:49.000Z,288.77
2022-10-18T08:25:16.000Z,288.77
2022-10-18T08:27:22.000Z,288.77
2022-10-18T08:28:48.000Z,288.77
2022-10-18T08:31:07.000Z,288.71
2022-10-18T08:33:59.000Z,288.71
2022-10-18T08:35:25.000Z,288.77
2022-10-18T08:37:31.000Z,288.77
2022-10-18T08:38:59.000Z,288.84
2022-10-18T08:41:05.000Z,288.84
2022-10-18T08:42:31.000Z,288.84
2022-10-18T08:44:38.000Z,288.84
2022-10-18T08:46:05.000Z,288.9
2022-10-18T08:48:11.000Z,288.9
2022-10-18T08:49:37.000Z,288.9
2022-10-18T08:51:50.000Z,288.84
2022-10-18T08:53:16.000Z,288.9
2022-10-18T08:55:23.000Z,288.84
2022-10-18T08:56:49.000Z,288.77
2022-10-18T08:58:55.000Z,288.77
2022-10-18T09:00:22.000Z,288.77
2022-10-18T09:02:28.000Z,288.65
2022-10-18T09:03:55.000Z,288.59
2022-10-18T09:06:01.000Z,288.59
2022-10-18T09:07:28.000Z,288.46
2022-10-18T09:09:34.000Z,288.4
2022-10-18T09:12:25.000Z,288.4
2022-10-18T09:13:52.000Z,288.4
2022-10-18T09:15:58.000Z,288.34
2022-10-18T09:17:25.000Z,288.34
2022-10-18T09:19:31.000Z,288.4
2022-10-18T09:20:57.000Z,288.4
2022-10-18T09:23:03.000Z,288.46
2022-10-18T09:24:30.000Z,288.46
2022-10-18T09:26:36.000Z,288.52
2022-10-18T09:28:02.000Z,288.59
2022-10-18T09:30:08.000Z,288.52
2022-10-18T09:31:35.000Z,288.52
2022-10-18T09:33:41.000Z,288.59
2022-10-18T09:35:08.000Z,288.59
2022-10-18T09:37:14.000Z,288.52
2022-10-18T09:38:40.000Z,288.59
2022-10-18T09:40:46.000Z,288.59
2022-10-18T09:42:13.000Z,288.65
2022-10-18T09:44:19.000Z,288.77
2022-10-18T09:45:46.000Z,288.84
2022-10-18T09:47:52.000Z,288.84
2022-10-18T09:50:43.000Z,288.96
2022-10-18T09:52:09.000Z,289.02
2022-10-18T09:54:15.000Z,289.09
2022-10-18T09:55:42.000Z,289.02
2022-10-18T09:57:48.000Z,289.15
2022-10-18T09:59:14.000Z,289.21
2022-10-18T10:01:20.000Z,289.21
2022-10-18T10:02:47.000Z,289.27
2022-10-18T10:04:53.000Z,289.27
2022-10-18T10:06:19.000Z,289.34
2022-10-18T10:08:26.000Z,289.34
2022-10-18T10:09:52.000Z,289.34
2022-10-18T10:11:58.000Z,289.34
2022-10-18T10:13:25.000Z,289.4
2022-10-18T10:15:31.000Z,289.52
2022-10-18T10:17:04.000Z,289.52
2022-10-18T10:19:11.000Z,289.59
2022-10-18T10:20:37.000Z,289.59
2022-10-18T10:22:43.000Z,289.59
2022-10-18T10:24:10.000Z,289.59
2022-10-18T10:26:16.000Z,289.59
2022-10-18T10:29:07.000Z,289.65
2022-10-18T10:30:42.000Z,289.71
2022-10-18T10:32:48.000Z,289.71
2022-10-18T10:34:14.000Z,289.71
2022-10-18T10:36:20.000Z,289.77
2022-10-18T10:37:47.000Z,289.84
2022-10-18T10:41:25.000Z,289.84
2022-10-18T10:43:31.000Z,289.77
2022-10-18T10:45:03.000Z,289.71
2022-10-18T10:47:09.000Z,289.77
2022-10-18T10:48:36.000Z,289.77
2022-10-18T10:50:42.000Z,289.9
2022-10-18T10:52:08.000Z,290.02
2022-10-18T10:54:31.000Z,290.09
2022-10-18T10:55:58.000Z,289.96
2022-10-18T10:58:04.000Z,289.84
2022-10-18T10:59:30.000Z,289.77
2022-10-18T11:01:36.000Z,289.84
2022-10-18T11:03:03.000Z,289.9
2022-10-18T11:05:32.000Z,289.84
2022-10-18T11:08:23.000Z,289.77
2022-10-18T11:09:50.000Z,289.84
2022-10-18T11:11:56.000Z,289.77
2022-10-18T11:13:23.000Z,289.84
2022-10-18T11:15:29.000Z,289.84
2022-10-18T11:16:55.000Z,289.71
2022-10-18T11:19:01.000Z,289.71
2022-10-18T11:20:28.000Z,289.77
2022-10-18T11:22:34.000Z,289.71
2022-10-18T11:24:00.000Z,289.77
2022-10-18T11:26:06.000Z,289.77
2022-10-18T11:27:33.000Z,289.77
2022-10-18T11:29:39.000Z,289.65
2022-10-18T11:31:05.000Z,289.77
2022-10-18T11:33:12.000Z,289.9
2022-10-18T11:34:38.000Z,289.84
2022-10-18T11:36:45.000Z,289.84
2022-10-18T11:38:26.000Z,289.9
2022-10-18T11:40:33.000Z,289.77
2022-10-18T11:41:59.000Z,289.77
2022-10-18T11:44:05.000Z,289.77
2022-10-18T11:46:56.000Z,289.71
2022-10-18T11:48:23.000Z,289.65
2022-10-18T11:50:29.000Z,289.71
2022-10-18T11:51:55.000Z,289.77
2022-10-18T11:54:12.000Z,289.71
2022-10-18T11:55:39.000Z,289.71
2022-10-18T11:57:45.000Z,289.77
2022-10-18T11:59:11.000Z,289.71
2022-10-18T12:01:17.000Z,289.77
2022-10-18T12:02:50.000Z,289.77
2022-10-18T12:04:56.000Z,289.77
2022-10-18T12:06:48.000Z,289.96
2022-10-18T12:08:54.000Z,289.9
2022-10-18T12:10:21.000Z,289.84
2022-10-18T12:12:56.000Z,289.77
2022-10-18T12:14:23.000Z,289.71
2022-10-18T12:16:29.000Z,289.84
2022-10-18T12:18:15.000Z,289.84
2022-10-18T12:20:21.000Z,289.71
2022-10-18T12:21:47.000Z,289.59
2022-10-18T12:23:53.000Z,289.59
2022-10-18T12:26:45.000Z,289.77
2022-10-18T12:28:11.000Z,289.9
2022-10-18T12:30:17.000Z,289.96
2022-10-18T12:31:44.000Z,289.96
2022-10-18T12:33:50.000Z,290.02
2022-10-18T12:35:16.000Z,289.96
2022-10-18T12:37:22.000Z,290.02
2022-10-18T12:38:49.000Z,289.96
2022-10-18T12:40:55.000Z,289.77
2022-10-18T12:42:22.000Z,289.84
2022-10-18T12:44:28.000Z,289.9
2022-10-18T12:45:54.000Z,289.96
2022-10-18T12:48:00.000Z,289.96
2022-10-18T12:49:27.000Z,289.96
2022-10-18T12:51:33.000Z,290.02
2022-10-18T12:52:59.000Z,290.02
2022-10-18T12:55:05.000Z,290.02
2022-10-18T12:56:32.000Z,289.96
2022-10-18T12:58:38.000Z,290.02
2022-10-18T13:00:05.000Z,289.96
2022-10-18T13:02:11.000Z,289.96
2022-10-18T13:05:02.000Z,289.9
2022-10-18T13:06:34.000Z,289.9
2022-10-18T13:08:40.000Z,289.96
2022-10-18T13:10:06.000Z,290.09
2022-10-18T13:12:13.000Z,290.15
2022-10-18T13:13:39.000Z,290.27
2022-10-18T13:15:45.000Z,290.21
2022-10-18T13:17:12.000Z,290.27
2022-10-18T13:19:18.000Z,290.34
2022-10-18T13:20:44.000Z,290.34
2022-10-18T13:22:50.000Z,290.34
2022-10-18T13:24:17.000Z,290.34
2022-10-18T13:26:23.000Z,290.34
2022-10-18T13:27:49.000Z,290.4
2022-10-18T13:29:56.000Z,290.52
2022-10-18T13:31:22.000Z,290.59
2022-10-18T13:33:28.000Z,290.65
2022-10-18T13:34:55.000Z,290.71
2022-10-18T13:37:01.000Z,290.84
2022-10-18T13:38:27.000Z,290.84
2022-10-18T13:40:33.000Z,290.96
2022-10-18T13:43:25.000Z,290.9
2022-10-18T13:44:51.000Z,290.84
2022-10-18T13:46:57.000Z,290.84
2022-10-18T13:48:24.000Z,290.77
2022-10-18T13:50:30.000Z,290.71
2022-10-18T13:51:57.000Z,290.71
2022-10-18T13:54:03.000Z,290.59
2022-10-18T13:55:29.000Z,290.52
2022-10-18T13:57:36.000Z,290.52
2022-10-18T13:59:02.000Z,290.46
2022-10-18T14:01:19.000Z,290.46
2022-10-18T14:02:45.000Z,290.4
2022-10-18T14:05:00.000Z,290.34
2022-10-18T14:06:48.000Z,290.4
2022-10-18T14:08:54.000Z,290.46
2022-10-18T14:10:21.000Z,290.52
2022-10-18T14:12:47.000Z,290.46
2022-10-18T14:14:14.000Z,290.52
2022-10-18T14:16:20.000Z,290.52
2022-10-18T14:17:46.000Z,290.52
2022-10-18T14:19:52.000Z,290.65
2022-10-18T14:22:43.000Z,290.71
2022-10-18T14:24:10.000Z,290.84
2022-10-18T14:26:16.000Z,290.77
2022-10-18T14:27:42.000Z,290.84
2022-10-18T14:29:49.000Z,290.71
2022-10-18T14:31:15.000Z,290.59
2022-10-18T14:33:21.000Z,290.52
2022-10-18T14:34:48.000Z,290.46
2022-10-18T14:36:54.000Z,290.4
2022-10-18T14:38:20.000Z,290.4
2022-10-18T14:40:26.000Z,290.34
2022-10-18T14:41:53.000Z,290.34
2022-10-18T14:43:59.000Z,290.27
2022-10-18T14:45:25.000Z,290.27
2022-10-18T14:47:32.000Z,290.21
2022-10-18T14:48:59.000Z,290.15
2022-10-18T14:51:05.000Z,290.15
2022-10-18T14:52:31.000Z,290.09
2022-10-18T14:54:39.000Z,290.02
2022-10-18T14:56:06.000Z,290.02
2022-10-18T14:58:12.000Z,289.96
2022-10-18T15:01:04.000Z,290.02
2022-10-18T15:02:30.000Z,290.02
2022-10-18T15:04:37.000Z,290.09
2022-10-18T15:06:03.000Z,290.15
2022-10-18T15:08:09.000Z,290.15
2022-10-18T15:09:36.000Z,290.21
2022-10-18T15:11:42.000Z,290.21
2022-10-18T15:13:09.000Z,290.27
2022-10-18T15:15:15.000Z,290.34
2022-10-18T15:16:42.000Z,290.4
2022-10-18T15:18:48.000Z,290.46
2022-10-18T15:20:15.000Z,290.46
2022-10-18T15:22:21.000Z,290.46
2022-10-18T15:23:57.000Z,290.46
2022-10-18T15:26:03.000Z,290.46
2022-10-18T15:27:29.000Z,290.52
2022-10-18T15:29:36.000Z,290.52
2022-10-18T15:31:03.000Z,290.52
2022-10-18T15:33:09.000Z,290.52
2022-10-18T15:34:35.000Z,290.52
2022-10-18T15:39:33.000Z,290.34
2022-10-18T15:40:59.000Z,290.4
2022-10-18T15:43:05.000Z,290.34
2022-10-18T15:44:32.000Z,290.27
2022-10-18T15:46:38.000Z,290.21
2022-10-18T15:48:05.000Z,290.21
2022-10-18T15:50:11.000Z,290.21
2022-10-18T15:51:37.000Z,290.15
2022-10-18T15:53:43.000Z,290.15
2022-10-18T15:55:10.000Z,290.15
2022-10-18T15:57:16.000Z,290.09
2022-10-18T15:58:42.000Z,290.09
2022-10-18T16:00:48.000Z,290.09
2022-10-18T16:02:15.000Z,290.09
2022-10-18T16:04:21.000Z,290.02
2022-10-18T16:05:48.000Z,290.09
2022-10-18T16:07:54.000Z,290.02
2022-10-18T16:09:20.000Z,290.02
2022-10-18T16:11:26.000Z,290.02
2022-10-18T16:14:59.000Z,289.9
2022-10-18T16:17:50.000Z,289.96
2022-10-18T16:19:17.000Z,289.9
2022-10-18T16:21:23.000Z,289.77
2022-10-18T16:22:49.000Z,289.77
2022-10-18T16:24:55.000Z,289.77
2022-10-18T16:26:22.000Z,289.77
2022-10-18T16:28:28.000Z,289.65
2022-10-18T16:29:54.000Z,289.59
2022-10-18T16:32:01.000Z,289.46
2022-10-18T16:33:27.000Z,289.4
2022-10-18T16:35:33.000Z,289.34
2022-10-18T16:37:00.000Z,289.21
2022-10-18T16:39:06.000Z,289.15
2022-10-18T16:40:32.000Z,289.15
2022-10-18T16:42:43.000Z,289.21
2022-10-18T16:44:09.000Z,289.21
2022-10-18T16:46:15.000Z,289.09
2022-10-18T16:47:42.000Z,289.09
2022-10-18T16:49:48.000Z,288.96
2022-10-18T16:51:14.000Z,288.96
2022-10-18T16:53:20.000Z,288.9
2022-10-18T16:56:12.000Z,288.84
2022-10-18T16:57:38.000Z,288.77
2022-10-18T16:59:44.000Z,288.65
2022-10-18T17:01:11.000Z,288.65
2022-10-18T17:03:17.000Z,288.65
2022-10-18T17:04:44.000Z,288.59
2022-10-18T17:06:50.000Z,288.52
2022-10-18T17:08:16.000Z,288.46
2022-10-18T17:10:23.000Z,288.4
2022-10-18T17:11:49.000Z,288.34
2022-10-18T17:13:55.000Z,288.34
2022-10-18T17:15:22.000Z,288.34
2022-10-18T17:17:28.000Z,288.34
2022-10-18T17:18:55.000Z,288.34
2022-10-18T17:21:01.000Z,288.27
2022-10-18T17:22:27.000Z,288.34
2022-10-18T17:24:34.000Z,288.27
2022-10-18T17:26:00.000Z,288.27
2022-10-18T17:28:31.000Z,288.21
2022-10-18T17:29:58.000Z,288.21
2022-10-18T17:32:04.000Z,288.21
2022-10-18T17:34:55.000Z,288.21
2022-10-18T17:36:22.000Z,288.09
2022-10-18T17:38:28.000Z,287.96
2022-10-18T17:39:54.000Z,287.96
2022-10-18T17:42:00.000Z,287.9
2022-10-18T17:43:27.000Z,287.96
2022-10-18T17:45:33.000Z,287.84
2022-10-18T17:47:00.000Z,287.9
2022-10-18T17:49:06.000Z,287.77
2022-10-18T17:50:33.000Z,287.77
2022-10-18T17:54:05.000Z,287.77
2022-10-18T17:56:12.000Z,287.77
2022-10-18T17:57:38.000Z,287.84
2022-10-18T17:59:45.000Z,287.84
2022-10-18T18:01:11.000Z,287.84
2022-10-18T18:03:17.000Z,287.71
2022-10-18T18:04:44.000Z,287.77
2022-10-18T18:06:50.000Z,287.77
2022-10-18T18:08:16.000Z,287.77
2022-10-18T18:10:23.000Z,287.71
2022-10-18T18:13:14.000Z,287.59
2022-10-18T18:14:44.000Z,287.59
2022-10-18T18:16:50.000Z,287.59
2022-10-18T18:18:16.000Z,287.59
2022-10-18T18:20:22.000Z,287.59
2022-10-18T18:21:49.000Z,287.59
2022-10-18T18:23:55.000Z,287.59
2022-10-18T18:25:22.000Z,287.59
2022-10-18T18:27:28.000Z,287.59
2022-10-18T18:28:54.000Z,287.59
2022-10-18T18:31:01.000Z,287.52
2022-10-18T18:32:27.000Z,287.52
2022-10-18T18:34:33.000Z,287.46
2022-10-18T18:36:00.000Z,287.4
2022-10-18T18:38:06.000Z,287.46
2022-10-18T18:39:32.000Z,287.4
2022-10-18T18:41:38.000Z,287.34
2022-10-18T18:43:05.000Z,287.34
2022-10-18T18:45:27.000Z,287.34
2022-10-18T18:46:54.000Z,287.34
2022-10-18T18:49:00.000Z,287.34
2022-10-18T18:51:51.000Z,287.21
2022-10-18T18:53:18.000Z,287.21
2022-10-18T18:55:24.000Z,287.27
2022-10-18T18:56:50.000Z,287.27
2022-10-18T18:58:56.000Z,287.27
2022-10-18T19:00:23.000Z,287.09
2022-10-18T19:02:29.000Z,286.96
2022-10-18T19:03:55.000Z,286.96
2022-10-18T19:06:01.000Z,286.9
2022-10-18T19:07:28.000Z,286.84
2022-10-18T19:09:35.000Z,286.77
2022-10-18T19:11:01.000Z,286.84
2022-10-18T19:13:13.000Z,286.77
2022-10-18T19:14:39.000Z,286.77
2022-10-18T19:16:45.000Z,286.71
2022-10-18T19:18:12.000Z,286.71
2022-10-18T19:20:18.000Z,286.65
2022-10-18T19:21:44.000Z,286.65
2022-10-18T19:23:50.000Z,286.59
2022-10-18T19:25:17.000Z,286.65
2022-10-18T19:27:28.000Z,286.59
2022-10-18T19:30:20.000Z,286.65
2022-10-18T19:31:46.000Z,286.71
2022-10-18T19:33:52.000Z,286.59
2022-10-18T19:35:24.000Z,286.52
2022-10-18T19:37:30.000Z,286.52
2022-10-18T19:38:57.000Z,286.52
2022-10-18T19:41:03.000Z,286.59
2022-10-18T19:42:29.000Z,286.59
2022-10-18T19:44:36.000Z,286.65
2022-10-18T19:46:02.000Z,286.71
2022-10-18T19:48:08.000Z,286.71
2022-10-18T19:49:37.000Z,286.71
2022-10-18T19:51:43.000Z,286.65
2022-10-18T19:53:10.000Z,286.65
2022-10-18T19:55:16.000Z,286.65
2022-10-18T19:56:43.000Z,286.59
2022-10-18T19:58:49.000Z,286.59
2022-10-18T20:00:15.000Z,286.52
2022-10-18T20:02:23.000Z,286.59
2022-10-18T20:03:50.000Z,286.65
2022-10-18T20:05:56.000Z,286.65
2022-10-18T20:08:47.000Z,286.71
2022-10-18T20:10:14.000Z,286.71
2022-10-18T20:12:20.000Z,286.77
2022-10-18T20:13:46.000Z,286.77
2022-10-18T20:15:52.000Z,286.77
2022-10-18T20:17:19.000Z,286.84
2022-10-18T20:19:25.000Z,286.77
2022-10-18T20:20:51.000Z,286.77
2022-10-18T20:22:58.000Z,286.77
2022-10-18T20:24:24.000Z,286.84
2022-10-18T20:26:30.000Z,286.84
2022-10-18T20:27:57.000Z,286.84
2022-10-18T20:30:03.000Z,286.84
2022-10-18T20:31:35.000Z,286.84
2022-10-18T20:33:41.000Z,286.84
2022-10-18T20:35:08.000Z,286.84
2022-10-18T20:37:14.000Z,286.84
2022-10-18T20:38:41.000Z,286.77
2022-10-18T20:40:47.000Z,286.77
2022-10-18T20:42:13.000Z,286.84
2022-10-18T20:44:19.000Z,286.84
2022-10-18T20:47:11.000Z,286.84
2022-10-18T20:48:37.000Z,286.84
2022-10-18T20:50:43.000Z,286.84
2022-10-18T20:52:10.000Z,286.77
2022-10-18T20:54:16.000Z,286.71
2022-10-18T20:55:43.000Z,286.65
2022-10-18T20:57:49.000Z,286.52
2022-10-18T20:59:15.000Z,286.59
2022-10-18T21:01:21.000Z,286.46
2022-10-18T21:02:48.000Z,286.46
2022-10-18T21:04:54.000Z,286.52
2022-10-18T21:06:20.000Z,286.46
2022-10-18T21:08:27.000Z,286.46
2022-10-18T21:09:53.000Z,286.46
2022-10-18T21:11:59.000Z,286.52
2022-10-18T21:13:26.000Z,286.46
2022-10-18T21:15:32.000Z,286.52
2022-10-18T21:16:59.000Z,286.46
2022-10-18T21:19:05.000Z,286.4
2022-10-18T21:20:31.000Z,286.4
2022-10-18T21:22:37.000Z,286.34
2022-10-18T21:25:29.000Z,286.4
2022-10-18T21:26:55.000Z,286.4
2022-10-18T21:29:01.000Z,286.34
2022-10-18T21:30:28.000Z,286.34
2022-10-18T21:32:34.000Z,286.27
2022-10-18T21:34:01.000Z,286.15
2022-10-18T21:36:07.000Z,286.15
2022-10-18T21:37:33.000Z,286.21
2022-10-18T21:39:39.000Z,286.15
2022-10-18T21:41:06.000Z,286.21
2022-10-18T21:43:12.000Z,286.27
2022-10-18T21:44:39.000Z,286.27
2022-10-18T21:46:45.000Z,286.21
2022-10-18T21:48:11.000Z,286.15
2022-10-18T21:50:17.000Z,286.15
2022-10-18T21:51:44.000Z,286.15
2022-10-18T21:53:50.000Z,286.15
2022-10-18T21:55:16.000Z,286.21
2022-10-18T21:57:22.000Z,286.21
2022-10-18T21:58:49.000Z,286.15
2022-10-18T22:00:55.000Z,286.15
2022-10-18T22:03:47.000Z,286.02
2022-10-18T22:05:13.000Z,286.02
2022-10-18T22:07:19.000Z,286.02
2022-10-18T22:08:46.000Z,285.96
2022-10-18T22:10:52.000Z,286.02
2022-10-18T22:12:18.000Z,286.02
2022-10-18T22:14:24.000Z,285.9
2022-10-18T22:15:51.000Z,285.77
2022-10-18T22:17:57.000Z,285.77
2022-10-18T22:19:23.000Z,285.71
2022-10-18T22:21:30.000Z,285.59
2022-10-18T22:22:56.000Z,285.52
2022-10-18T22:25:02.000Z,285.46
2022-10-18T22:26:29.000Z,285.52
2022-10-18T22:28:35.000Z,285.52
2022-10-18T22:30:01.000Z,285.52
2022-10-18T22:32:07.000Z,285.59
2022-10-18T22:35:40.000Z,285.52
2022-10-18T22:37:07.000Z,285.52
2022-10-18T22:39:13.000Z,285.46
2022-10-18T22:42:04.000Z,285.46
2022-10-18T22:43:31.000Z,285.46
2022-10-18T22:45:37.000Z,285.46
2022-10-18T22:47:03.000Z,285.52
2022-10-18T22:49:10.000Z,285.46
2022-10-18T22:50:36.000Z,285.46
2022-10-18T22:52:42.000Z,285.46
2022-10-18T22:54:09.000Z,285.46
2022-10-18T22:56:15.000Z,285.46
2022-10-18T22:57:41.000Z,285.46
2022-10-18T22:59:47.000Z,285.4
2022-10-18T23:01:14.000Z,285.4
2022-10-18T23:03:20.000Z,285.34
2022-10-18T23:04:46.000Z,285.4
2022-10-18T23:06:53.000Z,285.46
2022-10-18T23:08:19.000Z,285.4